Kivalina, AK

4:25 PM AKST on February 11, 2016 (GMT -0900)
Kivalina | | Change Station
CLOSE
Current Station
Airport
Location: Kivalina,
Elevation: 10 ft
Nearby Weather Stations

Elev 10 ft 67.73 °N, 164.55 °W | Updated 32 minutes ago

Clear
Clear
-3 °F
Feels Like -23 °F
N
15
Wind Variable Wind from NNE

Today
High -- | Low -- °F
--% Chance of Precip.
Yesterday
High -- | Low -- °F
Precip. -- in
Pressure 29.81 in
Visibility 10.0 miles
Clouds Clear
Windchill -23 °F
Dew Point -10 °F
Humidity 72%
Rainfall 0.00 in
Snow Depth Not available.
10:31 AM 5:54 PM
Waxing Crescent, 16% visible
METAR PAVL 120053Z AUTO 02013KT 10SM CLR M19/M23 A2980 RMK AO2 SLP092 T11941233 TSNO
Pressure 29.81 in
Visibility 10.0 miles
Clouds Clear
Windchill -23 °F
Dew Point -10 °F
Humidity 72%
Rainfall 0.00 in
Snow Depth Not available.
10:31 AM 5:54 PM
Waxing Crescent, 16% visible
METAR PAVL 120053Z AUTO 02013KT 10SM CLR M19/M23 A2980 RMK AO2 SLP092 T11941233 TSNO

10-Day Weather Forecast

Almanac

Astronomy

Feb. 11, 2016 Rise Set
Actual Time
Civil Twilight
Nautical Twilight
Astronomical Twilight
Moon
Length of Visible Light
Length of Day
Tomorrow will be .
, % of the Moon is Illuminated

Today's Extremes

State Highs State Lows

Community

WunderPhotos

Upload Photos

1,892,205 photos uploaded!

WunderBlog® & News

Nearby

Air Quality

  Air Quality AQ Index Pollutant
Not available.

Snow Depth

Station Depth Elevation

Earthquake Activity

City Distance Mag. Time & Date
Minimum magnitude displayed is 2.5.

Coastal Water Temperatures

Place Temperature

Stations

Nearby Weather Stations

Station Location Temp. Windchill Dew Point Humidity Wind Precip. Elev Updated Type
                   

Watches & Warnings

There are currently no watches in effect.